sensor_id;sensor_type;location;lat;lon;timestamp;pressure;altitude;pressure_sealevel;temperature;humidity
37368;BME280;23240;43.210;27.910;2023-07-29T00:01:30;100818.88;;;20.49;100.00
37368;BME280;23240;43.210;27.910;2023-07-29T00:03:55;100823.09;;;20.51;100.00
37368;BME280;23240;43.210;27.910;2023-07-29T00:06:21;100814.94;;;20.51;100.00
37368;BME280;23240;43.210;27.910;2023-07-29T00:08:46;100815.97;;;20.50;100.00
37368;BME280;23240;43.210;27.910;2023-07-29T00:11:11;100816.41;;;20.54;100.00
37368;BME280;23240;43.210;27.910;2023-07-29T00:13:37;100809.34;;;20.45;100.00
37368;BME280;23240;43.210;27.910;2023-07-29T00:16:02;100808.72;;;20.43;100.00
37368;BME280;23240;43.210;27.910;2023-07-29T00:18:27;100812.47;;;20.42;100.00
37368;BME280;23240;43.210;27.910;2023-07-29T00:20:53;100813.13;;;20.44;100.00
37368;BME280;23240;43.210;27.910;2023-07-29T00:23:18;100810.50;;;20.36;100.00
37368;BME280;23240;43.210;27.910;2023-07-29T00:25:46;100808.63;;;20.36;100.00
37368;BME280;23240;43.210;27.910;2023-07-29T00:28:12;100803.75;;;20.32;100.00
37368;BME280;23240;43.210;27.910;2023-07-29T00:30:37;100809.34;;;20.30;100.00
37368;BME280;23240;43.210;27.910;2023-07-29T00:33:02;100806.91;;;20.20;100.00
37368;BME280;23240;43.210;27.910;2023-07-29T00:35:28;100814.59;;;20.02;100.00
37368;BME280;23240;43.210;27.910;2023-07-29T00:37:53;100809.50;;;19.84;100.00
37368;BME280;23240;43.210;27.910;2023-07-29T00:40:19;100811.34;;;19.69;100.00
37368;BME280;23240;43.210;27.910;2023-07-29T00:42:45;100807.84;;;19.60;100.00
37368;BME280;23240;43.210;27.910;2023-07-29T00:45:10;100807.56;;;19.47;100.00
37368;BME280;23240;43.210;27.910;2023-07-29T00:47:35;100803.09;;;19.31;100.00
37368;BME280;23240;43.210;27.910;2023-07-29T00:50:01;100807.69;;;19.31;100.00
37368;BME280;23240;43.210;27.910;2023-07-29T00:52:26;100811.97;;;19.25;100.00
37368;BME280;23240;43.210;27.910;2023-07-29T00:54:51;100817.09;;;19.20;100.00
37368;BME280;23240;43.210;27.910;2023-07-29T00:57:17;100813.41;;;19.13;100.00
37368;BME280;23240;43.210;27.910;2023-07-29T00:59:42;100816.69;;;19.00;100.00
37368;BME280;23240;43.210;27.910;2023-07-29T01:02:08;100816.22;;;18.96;100.00
37368;BME280;23240;43.210;27.910;2023-07-29T01:04:33;100820.31;;;18.92;100.00
37368;BME280;23240;43.210;27.910;2023-07-29T01:09:36;100818.84;;;18.82;100.00
37368;BME280;23240;43.210;27.910;2023-07-29T01:12:08;100818.69;;;18.75;100.00
37368;BME280;23240;43.210;27.910;2023-07-29T01:17:29;100808.88;;;18.74;100.00
37368;BME280;23240;43.210;27.910;2023-07-29T01:22:22;100794.78;;;18.70;100.00
37368;BME280;23240;43.210;27.910;2023-07-29T01:24:48;100802.28;;;18.68;100.00
37368;BME280;23240;43.210;27.910;2023-07-29T01:27:14;100798.00;;;18.66;100.00
37368;BME280;23240;43.210;27.910;2023-07-29T01:29:39;100796.84;;;18.68;100.00
37368;BME280;23240;43.210;27.910;2023-07-29T01:32:07;100793.13;;;18.69;100.00
37368;BME280;23240;43.210;27.910;2023-07-29T01:35:19;100787.34;;;18.64;100.00
37368;BME280;23240;43.210;27.910;2023-07-29T01:37:26;100788.56;;;18.62;100.00
37368;BME280;23240;43.210;27.910;2023-07-29T01:39:53;100787.06;;;18.51;100.00
37368;BME280;23240;43.210;27.910;2023-07-29T01:42:19;100794.22;;;18.44;100.00
37368;BME280;23240;43.210;27.910;2023-07-29T01:44:45;100794.06;;;18.37;100.00
37368;BME280;23240;43.210;27.910;2023-07-29T01:47:11;100801.19;;;18.38;100.00
37368;BME280;23240;43.210;27.910;2023-07-29T01:49:36;100797.78;;;18.36;100.00
37368;BME280;23240;43.210;27.910;2023-07-29T01:52:01;100798.16;;;18.33;100.00
37368;BME280;23240;43.210;27.910;2023-07-29T01:54:27;100799.53;;;18.21;100.00
37368;BME280;23240;43.210;27.910;2023-07-29T01:56:52;100802.06;;;18.22;100.00
37368;BME280;23240;43.210;27.910;2023-07-29T01:59:18;100799.53;;;18.21;100.00
37368;BME280;23240;43.210;27.910;2023-07-29T02:01:43;100799.53;;;18.21;100.00
37368;BME280;23240;43.210;27.910;2023-07-29T02:04:08;100803.97;;;18.14;100.00
37368;BME280;23240;43.210;27.910;2023-07-29T02:06:34;100811.91;;;18.15;100.00
37368;BME280;23240;43.210;27.910;2023-07-29T02:08:59;100808.88;;;18.18;100.00
37368;BME280;23240;43.210;27.910;2023-07-29T02:11:25;100813.78;;;18.15;100.00
37368;BME280;23240;43.210;27.910;2023-07-29T02:13:55;100809.06;;;18.09;100.00
37368;BME280;23240;43.210;27.910;2023-07-29T02:16:21;100807.53;;;18.14;100.00
37368;BME280;23240;43.210;27.910;2023-07-29T02:18:47;100809.22;;;18.15;100.00
37368;BME280;23240;43.210;27.910;2023-07-29T02:21:14;100804.63;;;18.16;100.00
37368;BME280;23240;43.210;27.910;2023-07-29T02:23:39;100803.78;;;18.07;100.00
37368;BME280;23240;43.210;27.910;2023-07-29T02:26:04;100806.34;;;18.01;100.00
37368;BME280;23240;43.210;27.910;2023-07-29T02:28:30;100806.03;;;17.95;100.00
37368;BME280;23240;43.210;27.910;2023-07-29T02:33:36;100802.81;;;17.92;100.00
37368;BME280;23240;43.210;27.910;2023-07-29T02:36:01;100799.94;;;17.85;100.00
37368;BME280;23240;43.210;27.910;2023-07-29T02:38:26;100803.69;;;17.84;100.00
37368;BME280;23240;43.210;27.910;2023-07-29T02:40:51;100810.09;;;17.83;100.00
37368;BME280;23240;43.210;27.910;2023-07-29T02:43:17;100810.13;;;17.75;100.00
37368;BME280;23240;43.210;27.910;2023-07-29T02:45:42;100815.34;;;17.77;100.00
37368;BME280;23240;43.210;27.910;2023-07-29T02:48:07;100817.56;;;17.81;100.00
37368;BME280;23240;43.210;27.910;2023-07-29T02:50:34;100822.97;;;17.81;100.00
37368;BME280;23240;43.210;27.910;2023-07-29T02:52:59;100817.41;;;17.75;100.00
37368;BME280;23240;43.210;27.910;2023-07-29T02:55:26;100828.38;;;17.73;100.00
37368;BME280;23240;43.210;27.910;2023-07-29T02:57:51;100834.47;;;17.67;100.00
37368;BME280;23240;43.210;27.910;2023-07-29T03:00:17;100827.50;;;17.64;100.00
37368;BME280;23240;43.210;27.910;2023-07-29T03:02:42;100830.91;;;17.66;100.00
37368;BME280;23240;43.210;27.910;2023-07-29T03:05:07;100833.09;;;17.63;100.00
37368;BME280;23240;43.210;27.910;2023-07-29T03:07:33;100818.53;;;17.64;100.00
37368;BME280;23240;43.210;27.910;2023-07-29T03:09:58;100812.78;;;17.67;100.00
37368;BME280;23240;43.210;27.910;2023-07-29T03:12:23;100806.03;;;17.71;100.00
37368;BME280;23240;43.210;27.910;2023-07-29T03:14:49;100808.25;;;17.76;100.00
37368;BME280;23240;43.210;27.910;2023-07-29T03:17:14;100816.53;;;17.74;100.00
37368;BME280;23240;43.210;27.910;2023-07-29T03:19:39;100815.03;;;17.80;100.00
37368;BME280;23240;43.210;27.910;2023-07-29T03:22:05;100809.75;;;17.78;100.00
37368;BME280;23240;43.210;27.910;2023-07-29T03:24:30;100816.72;;;17.81;100.00
37368;BME280;23240;43.210;27.910;2023-07-29T03:26:55;100808.75;;;17.87;100.00
37368;BME280;23240;43.210;27.910;2023-07-29T03:29:21;100814.16;;;17.87;100.00
37368;BME280;23240;43.210;27.910;2023-07-29T03:31:46;100819.94;;;17.84;100.00
37368;BME280;23240;43.210;27.910;2023-07-29T03:34:11;100809.94;;;17.85;100.00
37368;BME280;23240;43.210;27.910;2023-07-29T03:36:37;100811.78;;;17.92;100.00
37368;BME280;23240;43.210;27.910;2023-07-29T03:39:02;100809.41;;;17.97;100.00
37368;BME280;23240;43.210;27.910;2023-07-29T03:41:28;100813.13;;;17.96;100.00
37368;BME280;23240;43.210;27.910;2023-07-29T03:43:54;100811.97;;;17.99;100.00
37368;BME280;23240;43.210;27.910;2023-07-29T03:46:19;100806.69;;;17.97;100.00
37368;BME280;23240;43.210;27.910;2023-07-29T03:48:46;100815.66;;;17.98;100.00
37368;BME280;23240;43.210;27.910;2023-07-29T03:51:12;100816.69;;;18.05;100.00
37368;BME280;23240;43.210;27.910;2023-07-29T03:53:37;100817.72;;;18.04;100.00
37368;BME280;23240;43.210;27.910;2023-07-29T03:56:02;100819.72;;;18.02;100.00
37368;BME280;23240;43.210;27.910;2023-07-29T03:58:28;100812.44;;;18.03;100.00
37368;BME280;23240;43.210;27.910;2023-07-29T04:00:53;100818.56;;;18.05;100.00
37368;BME280;23240;43.210;27.910;2023-07-29T04:03:18;100814.63;;;18.15;100.00
37368;BME280;23240;43.210;27.910;2023-07-29T04:05:44;100819.88;;;18.17;100.00
37368;BME280;23240;43.210;27.910;2023-07-29T04:08:09;100822.75;;;18.23;100.00
37368;BME280;23240;43.210;27.910;2023-07-29T04:10:35;100825.94;;;18.27;100.00
37368;BME280;23240;43.210;27.910;2023-07-29T04:13:00;100826.81;;;18.28;100.00
37368;BME280;23240;43.210;27.910;2023-07-29T04:15:26;100825.44;;;18.32;100.00
37368;BME280;23240;43.210;27.910;2023-07-29T04:17:51;100822.88;;;18.38;100.00
37368;BME280;23240;43.210;27.910;2023-07-29T04:20:16;100821.53;;;18.34;100.00
37368;BME280;23240;43.210;27.910;2023-07-29T04:22:41;100822.50;;;18.41;100.00
37368;BME280;23240;43.210;27.910;2023-07-29T04:25:07;100822.19;;;18.44;100.00
37368;BME280;23240;43.210;27.910;2023-07-29T04:27:32;100826.91;;;18.50;100.00
37368;BME280;23240;43.210;27.910;2023-07-29T04:29:57;100820.09;;;18.63;100.00
37368;BME280;23240;43.210;27.910;2023-07-29T04:32:23;100819.06;;;18.72;100.00
37368;BME280;23240;43.210;27.910;2023-07-29T04:34:48;100824.09;;;18.83;100.00
37368;BME280;23240;43.210;27.910;2023-07-29T04:37:16;100822.84;;;18.94;100.00
37368;BME280;23240;43.210;27.910;2023-07-29T04:39:42;100823.22;;;19.14;100.00
37368;BME280;23240;43.210;27.910;2023-07-29T04:42:07;100825.16;;;19.59;100.00
37368;BME280;23240;43.210;27.910;2023-07-29T04:44:32;100815.66;;;20.45;100.00
37368;BME280;23240;43.210;27.910;2023-07-29T04:46:58;100817.22;;;21.35;100.00
37368;BME280;23240;43.210;27.910;2023-07-29T04:49:23;100811.06;;;21.97;100.00
37368;BME280;23240;43.210;27.910;2023-07-29T04:51:48;100825.34;;;22.21;100.00
37368;BME280;23240;43.210;27.910;2023-07-29T04:54:14;100823.47;;;22.63;100.00
37368;BME280;23240;43.210;27.910;2023-07-29T04:56:39;100827.09;;;22.70;100.00
37368;BME280;23240;43.210;27.910;2023-07-29T04:59:04;100826.59;;;22.94;100.00
37368;BME280;23240;43.210;27.910;2023-07-29T05:01:30;100825.38;;;23.03;100.00
37368;BME280;23240;43.210;27.910;2023-07-29T05:03:55;100831.81;;;23.57;100.00
37368;BME280;23240;43.210;27.910;2023-07-29T05:06:20;100831.88;;;24.03;100.00
37368;BME280;23240;43.210;27.910;2023-07-29T05:08:46;100822.56;;;24.44;100.00
37368;BME280;23240;43.210;27.910;2023-07-29T05:11:11;100823.38;;;24.58;100.00
37368;BME280;23240;43.210;27.910;2023-07-29T05:13:36;100818.03;;;24.83;100.00
37368;BME280;23240;43.210;27.910;2023-07-29T05:16:02;100816.75;;;24.79;100.00
37368;BME280;23240;43.210;27.910;2023-07-29T05:18:28;100823.69;;;24.88;100.00
37368;BME280;23240;43.210;27.910;2023-07-29T05:20:53;100829.19;;;24.81;100.00
37368;BME280;23240;43.210;27.910;2023-07-29T05:23:18;100823.72;;;24.75;100.00
37368;BME280;23240;43.210;27.910;2023-07-29T05:25:43;100826.94;;;25.17;100.00
37368;BME280;23240;43.210;27.910;2023-07-29T05:28:09;100818.44;;;25.31;100.00
37368;BME280;23240;43.210;27.910;2023-07-29T05:30:34;100821.84;;;25.27;100.00
37368;BME280;23240;43.210;27.910;2023-07-29T05:33:02;100823.66;;;24.95;100.00
37368;BME280;23240;43.210;27.910;2023-07-29T05:35:28;100824.03;;;25.11;100.00
37368;BME280;23240;43.210;27.910;2023-07-29T05:37:53;100826.34;;;25.15;100.00
37368;BME280;23240;43.210;27.910;2023-07-29T05:40:18;100822.41;;;25.35;100.00
37368;BME280;23240;43.210;27.910;2023-07-29T05:42:44;100826.34;;;25.46;100.00
37368;BME280;23240;43.210;27.910;2023-07-29T05:45:10;100821.94;;;25.77;100.00
37368;BME280;23240;43.210;27.910;2023-07-29T05:47:35;100830.53;;;25.87;100.00
37368;BME280;23240;43.210;27.910;2023-07-29T05:50:01;100826.25;;;25.91;100.00
37368;BME280;23240;43.210;27.910;2023-07-29T05:52:32;100821.59;;;26.17;100.00
37368;BME280;23240;43.210;27.910;2023-07-29T05:54:58;100814.16;;;26.42;100.00
37368;BME280;23240;43.210;27.910;2023-07-29T05:57:23;100826.84;;;26.61;100.00
37368;BME280;23240;43.210;27.910;2023-07-29T05:59:48;100824.25;;;26.85;100.00
37368;BME280;23240;43.210;27.910;2023-07-29T06:02:14;100822.94;;;26.87;97.23
37368;BME280;23240;43.210;27.910;2023-07-29T06:04:39;100818.81;;;26.78;91.04
37368;BME280;23240;43.210;27.910;2023-07-29T06:07:05;100815.72;;;26.56;90.80
37368;BME280;23240;43.210;27.910;2023-07-29T06:09:30;100811.34;;;26.67;90.66
37368;BME280;23240;43.210;27.910;2023-07-29T06:11:55;100815.63;;;26.81;90.92
37368;BME280;23240;43.210;27.910;2023-07-29T06:14:20;100825.22;;;26.90;95.09
37368;BME280;23240;43.210;27.910;2023-07-29T06:16:46;100815.13;;;27.21;95.57
37368;BME280;23240;43.210;27.910;2023-07-29T06:19:11;100820.13;;;27.54;90.11
37368;BME280;23240;43.210;27.910;2023-07-29T06:21:38;100821.47;;;27.63;87.28
37368;BME280;23240;43.210;27.910;2023-07-29T06:24:03;100824.50;;;27.74;87.46
37368;BME280;23240;43.210;27.910;2023-07-29T06:26:28;100813.28;;;27.87;87.39
37368;BME280;23240;43.210;27.910;2023-07-29T06:28:54;100817.00;;;27.81;86.68
37368;BME280;23240;43.210;27.910;2023-07-29T06:31:19;100819.28;;;27.96;84.23
37368;BME280;23240;43.210;27.910;2023-07-29T06:33:44;100821.81;;;28.21;80.85
37368;BME280;23240;43.210;27.910;2023-07-29T06:36:10;100822.22;;;27.71;80.57
37368;BME280;23240;43.210;27.910;2023-07-29T06:38:35;100821.66;;;27.50;79.38
37368;BME280;23240;43.210;27.910;2023-07-29T06:41:00;100817.28;;;27.61;80.10
37368;BME280;23240;43.210;27.910;2023-07-29T06:43:26;100827.63;;;27.77;78.62
37368;BME280;23240;43.210;27.910;2023-07-29T06:45:51;100819.91;;;28.09;76.27
37368;BME280;23240;43.210;27.910;2023-07-29T06:48:17;100818.25;;;28.43;73.25
37368;BME280;23240;43.210;27.910;2023-07-29T06:50:43;100817.34;;;28.66;71.30
37368;BME280;23240;43.210;27.910;2023-07-29T06:53:09;100823.06;;;28.88;68.86
37368;BME280;23240;43.210;27.910;2023-07-29T06:55:34;100819.63;;;28.69;67.74
37368;BME280;23240;43.210;27.910;2023-07-29T06:57:59;100825.38;;;28.56;68.29
37368;BME280;23240;43.210;27.910;2023-07-29T07:00:25;100818.47;;;28.94;66.35
37368;BME280;23240;43.210;27.910;2023-07-29T07:02:50;100816.66;;;29.11;66.48
37368;BME280;23240;43.210;27.910;2023-07-29T07:05:15;100814.28;;;29.32;65.13
37368;BME280;23240;43.210;27.910;2023-07-29T07:07:41;100806.66;;;29.67;64.04
37368;BME280;23240;43.210;27.910;2023-07-29T07:10:06;100811.88;;;29.52;64.10
37368;BME280;23240;43.210;27.910;2023-07-29T07:12:31;100815.56;;;29.12;64.94
37368;BME280;23240;43.210;27.910;2023-07-29T07:14:57;100817.38;;;29.07;65.42
37368;BME280;23240;43.210;27.910;2023-07-29T07:17:22;100809.84;;;29.31;64.11
37368;BME280;23240;43.210;27.910;2023-07-29T07:19:47;100819.28;;;29.63;61.85
37368;BME280;23240;43.210;27.910;2023-07-29T07:22:13;100820.81;;;29.42;63.31
37368;BME280;23240;43.210;27.910;2023-07-29T07:24:38;100817.78;;;29.44;62.49
37368;BME280;23240;43.210;27.910;2023-07-29T07:27:03;100821.63;;;29.72;61.61
37368;BME280;23240;43.210;27.910;2023-07-29T07:29:29;100824.31;;;30.00;59.05
37368;BME280;23240;43.210;27.910;2023-07-29T07:31:55;100817.69;;;30.01;56.44
37368;BME280;23240;43.210;27.910;2023-07-29T07:34:21;100819.13;;;30.59;54.81
37368;BME280;23240;43.210;27.910;2023-07-29T07:36:46;100817.75;;;30.79;53.57
37368;BME280;23240;43.210;27.910;2023-07-29T07:39:11;100812.47;;;30.77;53.02
37368;BME280;23240;43.210;27.910;2023-07-29T07:41:37;100814.63;;;31.19;52.16
37368;BME280;23240;43.210;27.910;2023-07-29T07:44:02;100817.97;;;31.21;50.92
37368;BME280;23240;43.210;27.910;2023-07-29T07:46:28;100809.94;;;31.46;48.82
37368;BME280;23240;43.210;27.910;2023-07-29T07:48:53;100805.38;;;31.08;47.96
37368;BME280;23240;43.210;27.910;2023-07-29T07:51:18;100802.59;;;31.08;48.60
37368;BME280;23240;43.210;27.910;2023-07-29T07:53:44;100807.13;;;30.92;48.69
37368;BME280;23240;43.210;27.910;2023-07-29T07:56:09;100807.47;;;31.23;47.56
37368;BME280;23240;43.210;27.910;2023-07-29T07:58:34;100802.31;;;31.59;44.09
37368;BME280;23240;43.210;27.910;2023-07-29T08:01:06;100799.09;;;32.04;43.25
37368;BME280;23240;43.210;27.910;2023-07-29T08:03:32;100793.41;;;32.21;41.77
37368;BME280;23240;43.210;27.910;2023-07-29T08:05:57;100794.47;;;32.20;39.45
37368;BME280;23240;43.210;27.910;2023-07-29T08:08:23;100789.28;;;32.29;38.28
37368;BME280;23240;43.210;27.910;2023-07-29T08:10:48;100783.28;;;31.99;37.04
37368;BME280;23240;43.210;27.910;2023-07-29T08:13:13;100778.13;;;32.18;37.53
37368;BME280;23240;43.210;27.910;2023-07-29T08:15:39;100773.41;;;32.19;36.00
37368;BME280;23240;43.210;27.910;2023-07-29T08:18:06;100775.56;;;32.54;35.66
37368;BME280;23240;43.210;27.910;2023-07-29T08:20:31;100782.25;;;32.58;34.35
37368;BME280;23240;43.210;27.910;2023-07-29T08:22:57;100781.09;;;32.49;34.41
37368;BME280;23240;43.210;27.910;2023-07-29T08:25:23;100778.41;;;32.17;35.06
37368;BME280;23240;43.210;27.910;2023-07-29T08:27:48;100775.06;;;32.20;33.78
37368;BME280;23240;43.210;27.910;2023-07-29T08:30:13;100766.38;;;32.43;34.09
37368;BME280;23240;43.210;27.910;2023-07-29T08:32:40;100763.97;;;32.67;31.51
37368;BME280;23240;43.210;27.910;2023-07-29T08:35:06;100765.78;;;32.99;32.43
37368;BME280;23240;43.210;27.910;2023-07-29T08:37:31;100759.19;;;32.47;34.44
37368;BME280;23240;43.210;27.910;2023-07-29T08:39:57;100752.88;;;32.67;32.85
37368;BME280;23240;43.210;27.910;2023-07-29T08:42:22;100744.59;;;32.78;33.45
37368;BME280;23240;43.210;27.910;2023-07-29T08:44:49;100744.44;;;33.35;37.41
37368;BME280;23240;43.210;27.910;2023-07-29T08:47:14;100743.66;;;33.60;39.81
37368;BME280;23240;43.210;27.910;2023-07-29T08:49:40;100738.06;;;33.40;41.99
37368;BME280;23240;43.210;27.910;2023-07-29T08:52:07;100741.38;;;33.26;42.02
37368;BME280;23240;43.210;27.910;2023-07-29T08:54:32;100736.16;;;33.45;42.50
37368;BME280;23240;43.210;27.910;2023-07-29T08:56:58;100730.88;;;33.49;42.01
37368;BME280;23240;43.210;27.910;2023-07-29T08:59:24;100731.97;;;33.17;41.85
37368;BME280;23240;43.210;27.910;2023-07-29T09:01:50;100724.19;;;33.35;42.08
37368;BME280;23240;43.210;27.910;2023-07-29T09:04:20;100719.78;;;33.49;40.51
37368;BME280;23240;43.210;27.910;2023-07-29T09:06:45;100719.47;;;33.30;41.56
37368;BME280;23240;43.210;27.910;2023-07-29T09:09:12;100718.09;;;33.17;42.50
37368;BME280;23240;43.210;27.910;2023-07-29T09:11:37;100711.88;;;32.74;41.94
37368;BME280;23240;43.210;27.910;2023-07-29T09:14:02;100716.63;;;32.21;42.65
37368;BME280;23240;43.210;27.910;2023-07-29T09:16:28;100704.44;;;31.80;43.07
37368;BME280;23240;43.210;27.910;2023-07-29T09:18:53;100720.56;;;31.51;44.76
37368;BME280;23240;43.210;27.910;2023-07-29T09:21:23;100710.44;;;31.30;44.30
37368;BME280;23240;43.210;27.910;2023-07-29T09:23:50;100715.75;;;31.09;46.20
37368;BME280;23240;43.210;27.910;2023-07-29T09:26:21;100704.63;;;31.04;47.93
37368;BME280;23240;43.210;27.910;2023-07-29T09:28:50;100712.22;;;30.87;50.34
37368;BME280;23240;43.210;27.910;2023-07-29T09:31:18;100708.25;;;30.78;49.76
37368;BME280;23240;43.210;27.910;2023-07-29T09:33:43;100717.22;;;30.68;48.35
37368;BME280;23240;43.210;27.910;2023-07-29T09:36:09;100713.41;;;30.47;48.20
37368;BME280;23240;43.210;27.910;2023-07-29T09:38:35;100715.13;;;30.53;51.20
37368;BME280;23240;43.210;27.910;2023-07-29T09:41:01;100706.16;;;30.46;51.09
37368;BME280;23240;43.210;27.910;2023-07-29T09:43:30;100703.50;;;30.51;50.82
37368;BME280;23240;43.210;27.910;2023-07-29T09:45:59;100702.13;;;30.54;50.91
37368;BME280;23240;43.210;27.910;2023-07-29T09:48:24;100696.81;;;30.47;52.12
37368;BME280;23240;43.210;27.910;2023-07-29T09:50:50;100696.16;;;30.01;52.69
37368;BME280;23240;43.210;27.910;2023-07-29T09:53:15;100696.91;;;29.75;53.25
37368;BME280;23240;43.210;27.910;2023-07-29T09:55:41;100703.25;;;29.58;56.38
37368;BME280;23240;43.210;27.910;2023-07-29T09:58:11;100701.81;;;29.39;58.75
37368;BME280;23240;43.210;27.910;2023-07-29T10:00:36;100707.16;;;29.29;58.55
37368;BME280;23240;43.210;27.910;2023-07-29T10:03:04;100707.22;;;29.00;61.71
37368;BME280;23240;43.210;27.910;2023-07-29T10:05:29;100698.28;;;28.81;63.33
37368;BME280;23240;43.210;27.910;2023-07-29T10:07:55;100702.28;;;28.74;67.24
37368;BME280;23240;43.210;27.910;2023-07-29T10:10:20;100707.78;;;28.45;66.59
37368;BME280;23240;43.210;27.910;2023-07-29T10:12:46;100703.59;;;28.31;73.06
37368;BME280;23240;43.210;27.910;2023-07-29T10:15:11;100704.00;;;28.11;78.97
37368;BME280;23240;43.210;27.910;2023-07-29T10:17:37;100699.00;;;27.96;84.77
37368;BME280;23240;43.210;27.910;2023-07-29T10:20:04;100699.72;;;27.91;95.95
37368;BME280;23240;43.210;27.910;2023-07-29T10:22:32;100706.91;;;27.81;95.05
37368;BME280;23240;43.210;27.910;2023-07-29T10:24:59;100696.91;;;27.45;99.68
37368;BME280;23240;43.210;27.910;2023-07-29T10:27:27;100701.09;;;27.24;100.00
37368;BME280;23240;43.210;27.910;2023-07-29T10:29:54;100705.53;;;27.06;95.40
37368;BME280;23240;43.210;27.910;2023-07-29T10:32:20;100708.34;;;26.88;100.00
37368;BME280;23240;43.210;27.910;2023-07-29T10:34:48;100714.81;;;26.63;100.00
37368;BME280;23240;43.210;27.910;2023-07-29T10:37:13;100715.28;;;26.60;100.00
37368;BME280;23240;43.210;27.910;2023-07-29T10:39:39;100716.75;;;26.45;100.00
37368;BME280;23240;43.210;27.910;2023-07-29T10:42:06;100723.13;;;26.20;100.00
37368;BME280;23240;43.210;27.910;2023-07-29T10:47:16;100708.16;;;25.54;100.00
37368;BME280;23240;43.210;27.910;2023-07-29T10:49:45;100702.03;;;25.27;100.00
37368;BME280;23240;43.210;27.910;2023-07-29T10:52:20;100717.06;;;25.25;100.00
37368;BME280;23240;43.210;27.910;2023-07-29T10:54:52;100710.22;;;25.34;100.00
37368;BME280;23240;43.210;27.910;2023-07-29T10:57:30;100709.94;;;25.42;100.00
37368;BME280;23240;43.210;27.910;2023-07-29T10:59:56;100703.22;;;25.38;100.00
37368;BME280;23240;43.210;27.910;2023-07-29T11:02:22;100696.38;;;25.47;100.00
37368;BME280;23240;43.210;27.910;2023-07-29T11:04:53;100704.63;;;25.47;100.00
37368;BME280;23240;43.210;27.910;2023-07-29T11:07:22;100701.00;;;25.53;100.00
37368;BME280;23240;43.210;27.910;2023-07-29T11:12:41;100707.50;;;25.34;100.00
37368;BME280;23240;43.210;27.910;2023-07-29T11:17:33;100704.63;;;25.47;100.00
37368;BME280;23240;43.210;27.910;2023-07-29T11:20:03;100708.66;;;25.45;100.00
37368;BME280;23240;43.210;27.910;2023-07-29T11:22:28;100710.50;;;25.51;100.00
37368;BME280;23240;43.210;27.910;2023-07-29T11:24:54;100706.53;;;25.47;100.00
37368;BME280;23240;43.210;27.910;2023-07-29T11:27:19;100703.13;;;25.51;100.00
37368;BME280;23240;43.210;27.910;2023-07-29T11:29:44;100710.75;;;25.49;100.00
37368;BME280;23240;43.210;27.910;2023-07-29T11:32:10;100701.50;;;25.44;100.00
37368;BME280;23240;43.210;27.910;2023-07-29T11:34:35;100703.78;;;25.47;100.00
37368;BME280;23240;43.210;27.910;2023-07-29T11:37:00;100704.50;;;25.60;100.00
37368;BME280;23240;43.210;27.910;2023-07-29T11:39:26;100696.88;;;25.62;100.00
37368;BME280;23240;43.210;27.910;2023-07-29T11:41:51;100698.75;;;25.69;100.00
37368;BME280;23240;43.210;27.910;2023-07-29T11:44:17;100699.97;;;25.73;100.00
37368;BME280;23240;43.210;27.910;2023-07-29T11:46:42;100684.78;;;25.70;100.00
37368;BME280;23240;43.210;27.910;2023-07-29T11:49:08;100691.94;;;25.78;100.00
37368;BME280;23240;43.210;27.910;2023-07-29T11:51:33;100688.44;;;25.89;100.00
37368;BME280;23240;43.210;27.910;2023-07-29T11:53:58;100693.25;;;25.94;100.00
37368;BME280;23240;43.210;27.910;2023-07-29T11:56:24;100686.84;;;26.00;100.00
37368;BME280;23240;43.210;27.910;2023-07-29T11:58:50;100689.34;;;26.01;100.00
37368;BME280;23240;43.210;27.910;2023-07-29T12:01:15;100686.31;;;26.09;100.00
37368;BME280;23240;43.210;27.910;2023-07-29T12:03:40;100683.13;;;26.12;100.00
37368;BME280;23240;43.210;27.910;2023-07-29T12:06:06;100679.19;;;26.20;100.00
37368;BME280;23240;43.210;27.910;2023-07-29T12:08:32;100677.38;;;26.32;100.00
37368;BME280;23240;43.210;27.910;2023-07-29T12:10:57;100671.34;;;26.42;100.00
37368;BME280;23240;43.210;27.910;2023-07-29T12:13:25;100679.75;;;26.47;100.00
37368;BME280;23240;43.210;27.910;2023-07-29T12:15:51;100677.38;;;26.51;100.00
37368;BME280;23240;43.210;27.910;2023-07-29T12:18:16;100677.16;;;26.52;100.00
37368;BME280;23240;43.210;27.910;2023-07-29T12:20:42;100680.28;;;26.56;100.00
37368;BME280;23240;43.210;27.910;2023-07-29T12:23:07;100676.44;;;26.57;100.00
37368;BME280;23240;43.210;27.910;2023-07-29T12:25:33;100680.28;;;26.56;100.00
37368;BME280;23240;43.210;27.910;2023-07-29T12:28:05;100682.09;;;26.62;100.00
37368;BME280;23240;43.210;27.910;2023-07-29T12:30:31;100678.19;;;26.70;95.96
37368;BME280;23240;43.210;27.910;2023-07-29T12:32:57;100673.03;;;26.73;96.17
37368;BME280;23240;43.210;27.910;2023-07-29T12:35:22;100675.56;;;26.75;98.45
37368;BME280;23240;43.210;27.910;2023-07-29T12:37:57;100681.66;;;26.77;99.69
37368;BME280;23240;43.210;27.910;2023-07-29T12:40:23;100678.91;;;26.77;93.49
37368;BME280;23240;43.210;27.910;2023-07-29T12:42:49;100683.47;;;26.83;95.99
37368;BME280;23240;43.210;27.910;2023-07-29T12:45:16;100677.06;;;26.89;93.14